sensor_id;sensor_type;location;lat;lon;timestamp;P1;durP1;ratioP1;P2;durP2;ratioP2
7211;SDS011;3647;48.792;9.802;2023-09-30T07:00:14;6.00;;;2.83;;
7211;SDS011;3647;48.792;9.802;2023-09-30T07:02:41;6.95;;;2.90;;
7211;SDS011;3647;48.792;9.802;2023-09-30T07:05:09;6.50;;;3.38;;
7211;SDS011;3647;48.792;9.802;2023-09-30T07:07:37;5.13;;;3.00;;
7211;SDS011;3647;48.792;9.802;2023-09-30T07:10:05;6.80;;;2.80;;
7211;SDS011;3647;48.792;9.802;2023-09-30T07:12:32;5.80;;;3.80;;
7211;SDS011;3647;48.792;9.802;2023-09-30T07:15:00;5.70;;;3.58;;
7211;SDS011;3647;48.792;9.802;2023-09-30T07:17:29;4.95;;;3.70;;
7211;SDS011;3647;48.792;9.802;2023-09-30T07:19:56;6.10;;;3.20;;
7211;SDS011;3647;48.792;9.802;2023-09-30T07:22:22;6.70;;;3.15;;
7211;SDS011;3647;48.792;9.802;2023-09-30T07:24:49;6.88;;;3.25;;
7211;SDS011;3647;48.792;9.802;2023-09-30T07:27:16;5.03;;;2.97;;
7211;SDS011;3647;48.792;9.802;2023-09-30T07:29:43;4.82;;;3.88;;
7211;SDS011;3647;48.792;9.802;2023-09-30T07:32:10;3.40;;;3.08;;
7211;SDS011;3647;48.792;9.802;2023-09-30T07:34:39;5.78;;;3.15;;
7211;SDS011;3647;48.792;9.802;2023-09-30T07:37:06;5.93;;;3.03;;
7211;SDS011;3647;48.792;9.802;2023-09-30T07:39:34;7.53;;;3.50;;
7211;SDS011;3647;48.792;9.802;2023-09-30T07:42:01;4.30;;;3.28;;
7211;SDS011;3647;48.792;9.802;2023-09-30T07:44:28;6.25;;;3.50;;
7211;SDS011;3647;48.792;9.802;2023-09-30T07:46:55;5.93;;;2.92;;
7211;SDS011;3647;48.792;9.802;2023-09-30T07:49:22;4.00;;;3.08;;
7211;SDS011;3647;48.792;9.802;2023-09-30T07:51:50;7.43;;;3.83;;
7211;SDS011;3647;48.792;9.802;2023-09-30T07:54:17;5.18;;;3.35;;
7211;SDS011;3647;48.792;9.802;2023-09-30T07:56:44;7.70;;;3.75;;
7211;SDS011;3647;48.792;9.802;2023-09-30T07:59:11;6.15;;;3.38;;
7211;SDS011;3647;48.792;9.802;2023-09-30T08:01:38;5.95;;;3.13;;
7211;SDS011;3647;48.792;9.802;2023-09-30T08:04:05;5.57;;;3.10;;
7211;SDS011;3647;48.792;9.802;2023-09-30T08:06:32;3.85;;;2.90;;
7211;SDS011;3647;48.792;9.802;2023-09-30T08:09:00;9.82;;;3.88;;
7211;SDS011;3647;48.792;9.802;2023-09-30T08:11:28;6.45;;;3.20;;
7211;SDS011;3647;48.792;9.802;2023-09-30T08:13:57;5.18;;;3.42;;
7211;SDS011;3647;48.792;9.802;2023-09-30T08:16:29;5.75;;;3.67;;
7211;SDS011;3647;48.792;9.802;2023-09-30T08:18:56;4.00;;;3.00;;
7211;SDS011;3647;48.792;9.802;2023-09-30T08:21:23;7.50;;;3.30;;
7211;SDS011;3647;48.792;9.802;2023-09-30T08:23:50;6.20;;;3.65;;
7211;SDS011;3647;48.792;9.802;2023-09-30T08:26:18;5.90;;;3.40;;
7211;SDS011;3647;48.792;9.802;2023-09-30T08:28:45;6.85;;;5.05;;
7211;SDS011;3647;48.792;9.802;2023-09-30T08:31:12;7.95;;;3.25;;
7211;SDS011;3647;48.792;9.802;2023-09-30T08:33:39;6.70;;;3.40;;
7211;SDS011;3647;48.792;9.802;2023-09-30T08:36:08;8.20;;;3.50;;
7211;SDS011;3647;48.792;9.802;2023-09-30T08:38:35;4.90;;;3.30;;
7211;SDS011;3647;48.792;9.802;2023-09-30T08:41:03;4.93;;;3.28;;
7211;SDS011;3647;48.792;9.802;2023-09-30T08:43:31;4.88;;;3.55;;
7211;SDS011;3647;48.792;9.802;2023-09-30T08:46:04;6.32;;;3.35;;
7211;SDS011;3647;48.792;9.802;2023-09-30T08:48:32;4.38;;;3.20;;
7211;SDS011;3647;48.792;9.802;2023-09-30T08:51:00;5.20;;;3.40;;
7211;SDS011;3647;48.792;9.802;2023-09-30T08:53:28;3.40;;;3.08;;
7211;SDS011;3647;48.792;9.802;2023-09-30T08:55:56;4.18;;;3.03;;
7211;SDS011;3647;48.792;9.802;2023-09-30T08:58:26;5.30;;;3.75;;
7211;SDS011;3647;48.792;9.802;2023-09-30T09:00:56;3.75;;;2.67;;
7211;SDS011;3647;48.792;9.802;2023-09-30T09:03:23;5.13;;;3.22;;
7211;SDS011;3647;48.792;9.802;2023-09-30T09:05:53;6.93;;;3.78;;
7211;SDS011;3647;48.792;9.802;2023-09-30T09:08:21;3.55;;;2.80;;
7211;SDS011;3647;48.792;9.802;2023-09-30T09:10:58;6.03;;;2.83;;
7211;SDS011;3647;48.792;9.802;2023-09-30T09:13:28;6.38;;;2.97;;
7211;SDS011;3647;48.792;9.802;2023-09-30T09:16:12;4.80;;;3.03;;
7211;SDS011;3647;48.792;9.802;2023-09-30T09:18:39;5.30;;;2.65;;
7211;SDS011;3647;48.792;9.802;2023-09-30T09:21:10;6.30;;;2.72;;
7211;SDS011;3647;48.792;9.802;2023-09-30T09:23:41;4.60;;;3.08;;
7211;SDS011;3647;48.792;9.802;2023-09-30T09:26:09;3.80;;;2.55;;
7211;SDS011;3647;48.792;9.802;2023-09-30T09:28:36;4.20;;;2.97;;
7211;SDS011;3647;48.792;9.802;2023-09-30T09:31:25;4.35;;;2.80;;
7211;SDS011;3647;48.792;9.802;2023-09-30T09:33:52;5.90;;;2.70;;
7211;SDS011;3647;48.792;9.802;2023-09-30T09:36:19;3.70;;;2.70;;
7211;SDS011;3647;48.792;9.802;2023-09-30T09:38:48;5.07;;;2.30;;
7211;SDS011;3647;48.792;9.802;2023-09-30T09:41:18;4.10;;;2.92;;
7211;SDS011;3647;48.792;9.802;2023-09-30T09:43:45;3.88;;;2.90;;
7211;SDS011;3647;48.792;9.802;2023-09-30T09:46:15;6.60;;;2.83;;
7211;SDS011;3647;48.792;9.802;2023-09-30T09:48:45;5.80;;;3.00;;
7211;SDS011;3647;48.792;9.802;2023-09-30T09:51:12;4.90;;;3.10;;
7211;SDS011;3647;48.792;9.802;2023-09-30T09:53:40;4.70;;;3.10;;
7211;SDS011;3647;48.792;9.802;2023-09-30T09:56:08;5.18;;;3.30;;
7211;SDS011;3647;48.792;9.802;2023-09-30T09:58:37;4.70;;;3.10;;
7211;SDS011;3647;48.792;9.802;2023-09-30T10:01:06;4.30;;;2.83;;
7211;SDS011;3647;48.792;9.802;2023-09-30T10:03:35;4.28;;;3.17;;
7211;SDS011;3647;48.792;9.802;2023-09-30T10:06:03;6.15;;;3.15;;
7211;SDS011;3647;48.792;9.802;2023-09-30T10:08:32;5.68;;;3.33;;
7211;SDS011;3647;48.792;9.802;2023-09-30T10:11:02;6.07;;;2.95;;
7211;SDS011;3647;48.792;9.802;2023-09-30T10:13:49;5.47;;;3.22;;
7211;SDS011;3647;48.792;9.802;2023-09-30T10:19:16;6.13;;;3.22;;
7211;SDS011;3647;48.792;9.802;2023-09-30T10:24:50;5.95;;;3.22;;
7211;SDS011;3647;48.792;9.802;2023-09-30T10:27:28;9.43;;;3.47;;
7211;SDS011;3647;48.792;9.802;2023-09-30T10:30:05;8.73;;;3.67;;
7211;SDS011;3647;48.792;9.802;2023-09-30T10:35:44;6.03;;;3.30;;
7211;SDS011;3647;48.792;9.802;2023-09-30T10:41:06;5.38;;;3.00;;
7211;SDS011;3647;48.792;9.802;2023-09-30T10:43:34;3.83;;;3.17;;
7211;SDS011;3647;48.792;9.802;2023-09-30T10:46:02;5.80;;;3.03;;
7211;SDS011;3647;48.792;9.802;2023-09-30T10:48:32;5.65;;;3.53;;
7211;SDS011;3647;48.792;9.802;2023-09-30T10:51:01;4.65;;;3.00;;
7211;SDS011;3647;48.792;9.802;2023-09-30T10:53:41;7.82;;;3.80;;
7211;SDS011;3647;48.792;9.802;2023-09-30T10:56:09;5.95;;;3.10;;
7211;SDS011;3647;48.792;9.802;2023-09-30T10:58:40;3.97;;;2.92;;
7211;SDS011;3647;48.792;9.802;2023-09-30T11:01:07;5.75;;;3.38;;
7211;SDS011;3647;48.792;9.802;2023-09-30T11:03:34;5.28;;;3.47;;
7211;SDS011;3647;48.792;9.802;2023-09-30T11:06:02;5.32;;;3.72;;
7211;SDS011;3647;48.792;9.802;2023-09-30T11:08:29;7.60;;;3.88;;
7211;SDS011;3647;48.792;9.802;2023-09-30T11:10:57;5.15;;;3.50;;
7211;SDS011;3647;48.792;9.802;2023-09-30T11:13:25;6.80;;;3.70;;
7211;SDS011;3647;48.792;9.802;2023-09-30T11:15:59;6.45;;;3.30;;
7211;SDS011;3647;48.792;9.802;2023-09-30T11:18:27;8.35;;;3.72;;
7211;SDS011;3647;48.792;9.802;2023-09-30T11:21:02;5.75;;;3.45;;
7211;SDS011;3647;48.792;9.802;2023-09-30T11:23:31;8.10;;;3.60;;
7211;SDS011;3647;48.792;9.802;2023-09-30T11:26:00;5.65;;;3.38;;
7211;SDS011;3647;48.792;9.802;2023-09-30T11:28:35;5.85;;;3.72;;
7211;SDS011;3647;48.792;9.802;2023-09-30T11:31:03;11.57;;;5.07;;
7211;SDS011;3647;48.792;9.802;2023-09-30T11:33:31;7.45;;;3.35;;
7211;SDS011;3647;48.792;9.802;2023-09-30T11:36:04;7.13;;;3.90;;
7211;SDS011;3647;48.792;9.802;2023-09-30T11:38:32;6.82;;;4.07;;
7211;SDS011;3647;48.792;9.802;2023-09-30T11:41:02;7.57;;;4.07;;
7211;SDS011;3647;48.792;9.802;2023-09-30T11:43:31;9.15;;;4.68;;
7211;SDS011;3647;48.792;9.802;2023-09-30T11:46:06;6.75;;;4.10;;
7211;SDS011;3647;48.792;9.802;2023-09-30T11:48:34;8.00;;;4.55;;
7211;SDS011;3647;48.792;9.802;2023-09-30T11:51:01;7.40;;;3.88;;
7211;SDS011;3647;48.792;9.802;2023-09-30T11:53:29;7.30;;;3.70;;
7211;SDS011;3647;48.792;9.802;2023-09-30T11:55:56;6.70;;;3.58;;
7211;SDS011;3647;48.792;9.802;2023-09-30T11:58:25;10.65;;;4.35;;
7211;SDS011;3647;48.792;9.802;2023-09-30T12:00:57;7.18;;;4.10;;
7211;SDS011;3647;48.792;9.802;2023-09-30T12:03:26;7.68;;;3.97;;
7211;SDS011;3647;48.792;9.802;2023-09-30T12:05:53;5.80;;;3.40;;
7211;SDS011;3647;48.792;9.802;2023-09-30T12:08:21;7.40;;;4.22;;
7211;SDS011;3647;48.792;9.802;2023-09-30T12:10:48;9.73;;;4.45;;
7211;SDS011;3647;48.792;9.802;2023-09-30T12:13:15;6.85;;;3.70;;
7211;SDS011;3647;48.792;9.802;2023-09-30T12:15:45;7.53;;;4.20;;
7211;SDS011;3647;48.792;9.802;2023-09-30T12:18:13;7.97;;;4.05;;
7211;SDS011;3647;48.792;9.802;2023-09-30T12:20:42;8.23;;;4.07;;
7211;SDS011;3647;48.792;9.802;2023-09-30T12:23:09;9.45;;;3.53;;
7211;SDS011;3647;48.792;9.802;2023-09-30T12:25:36;7.53;;;4.15;;
7211;SDS011;3647;48.792;9.802;2023-09-30T12:28:03;9.82;;;4.20;;
7211;SDS011;3647;48.792;9.802;2023-09-30T12:30:30;9.85;;;4.07;;
7211;SDS011;3647;48.792;9.802;2023-09-30T12:32:59;9.57;;;5.03;;
7211;SDS011;3647;48.792;9.802;2023-09-30T12:35:26;7.88;;;3.90;;
7211;SDS011;3647;48.792;9.802;2023-09-30T12:37:52;9.50;;;5.32;;
7211;SDS011;3647;48.792;9.802;2023-09-30T12:40:19;9.50;;;4.70;;
7211;SDS011;3647;48.792;9.802;2023-09-30T12:42:47;10.73;;;5.05;;
7211;SDS011;3647;48.792;9.802;2023-09-30T12:45:14;9.73;;;4.90;;
7211;SDS011;3647;48.792;9.802;2023-09-30T12:47:42;7.97;;;4.10;;
7211;SDS011;3647;48.792;9.802;2023-09-30T12:50:10;6.47;;;3.63;;
7211;SDS011;3647;48.792;9.802;2023-09-30T12:52:37;6.93;;;3.92;;
7211;SDS011;3647;48.792;9.802;2023-09-30T12:55:04;9.38;;;4.85;;
7211;SDS011;3647;48.792;9.802;2023-09-30T12:57:31;9.63;;;3.60;;
7211;SDS011;3647;48.792;9.802;2023-09-30T12:59:58;11.10;;;4.10;;
7211;SDS011;3647;48.792;9.802;2023-09-30T13:02:25;7.70;;;4.07;;
7211;SDS011;3647;48.792;9.802;2023-09-30T13:04:52;11.20;;;4.60;;
7211;SDS011;3647;48.792;9.802;2023-09-30T13:07:20;10.95;;;5.03;;
7211;SDS011;3647;48.792;9.802;2023-09-30T13:09:49;9.30;;;4.75;;
7211;SDS011;3647;48.792;9.802;2023-09-30T13:12:15;9.32;;;4.55;;
7211;SDS011;3647;48.792;9.802;2023-09-30T13:14:42;9.93;;;4.70;;
7211;SDS011;3647;48.792;9.802;2023-09-30T13:17:09;7.72;;;3.92;;
7211;SDS011;3647;48.792;9.802;2023-09-30T13:19:39;11.55;;;4.75;;
7211;SDS011;3647;48.792;9.802;2023-09-30T13:22:06;8.55;;;4.07;;
7211;SDS011;3647;48.792;9.802;2023-09-30T13:24:34;12.18;;;4.78;;
7211;SDS011;3647;48.792;9.802;2023-09-30T13:27:05;9.75;;;4.07;;
7211;SDS011;3647;48.792;9.802;2023-09-30T13:29:32;8.80;;;4.25;;
7211;SDS011;3647;48.792;9.802;2023-09-30T13:31:58;7.07;;;3.80;;
7211;SDS011;3647;48.792;9.802;2023-09-30T13:34:25;10.15;;;4.75;;
7211;SDS011;3647;48.792;9.802;2023-09-30T13:36:52;8.60;;;4.60;;
7211;SDS011;3647;48.792;9.802;2023-09-30T13:39:20;7.13;;;3.75;;
7211;SDS011;3647;48.792;9.802;2023-09-30T13:41:50;10.80;;;4.93;;
7211;SDS011;3647;48.792;9.802;2023-09-30T13:44:17;5.25;;;3.20;;
7211;SDS011;3647;48.792;9.802;2023-09-30T13:46:44;6.15;;;3.20;;
7211;SDS011;3647;48.792;9.802;2023-09-30T13:49:11;8.07;;;3.90;;
7211;SDS011;3647;48.792;9.802;2023-09-30T13:51:38;8.70;;;4.45;;
7211;SDS011;3647;48.792;9.802;2023-09-30T13:54:05;9.48;;;4.20;;
7211;SDS011;3647;48.792;9.802;2023-09-30T13:56:33;8.50;;;4.53;;
7211;SDS011;3647;48.792;9.802;2023-09-30T13:59:01;10.77;;;4.53;;
7211;SDS011;3647;48.792;9.802;2023-09-30T14:01:28;8.50;;;4.53;;
7211;SDS011;3647;48.792;9.802;2023-09-30T14:03:54;8.35;;;4.07;;
7211;SDS011;3647;48.792;9.802;2023-09-30T14:06:23;7.45;;;4.13;;
7211;SDS011;3647;48.792;9.802;2023-09-30T14:08:49;9.80;;;4.50;;
7211;SDS011;3647;48.792;9.802;2023-09-30T14:11:18;7.68;;;3.80;;
7211;SDS011;3647;48.792;9.802;2023-09-30T14:13:44;9.30;;;3.97;;
7211;SDS011;3647;48.792;9.802;2023-09-30T14:16:12;7.72;;;4.63;;
7211;SDS011;3647;48.792;9.802;2023-09-30T14:18:39;9.68;;;4.13;;
7211;SDS011;3647;48.792;9.802;2023-09-30T14:21:06;8.02;;;4.22;;
7211;SDS011;3647;48.792;9.802;2023-09-30T14:23:33;9.77;;;4.47;;
7211;SDS011;3647;48.792;9.802;2023-09-30T14:25:59;9.13;;;4.80;;
7211;SDS011;3647;48.792;9.802;2023-09-30T14:28:29;8.32;;;3.75;;
7211;SDS011;3647;48.792;9.802;2023-09-30T14:30:57;9.73;;;4.60;;
7211;SDS011;3647;48.792;9.802;2023-09-30T14:33:25;7.40;;;4.63;;
7211;SDS011;3647;48.792;9.802;2023-09-30T14:35:51;8.45;;;4.22;;
7211;SDS011;3647;48.792;9.802;2023-09-30T14:38:19;8.07;;;4.03;;
7211;SDS011;3647;48.792;9.802;2023-09-30T14:40:46;6.07;;;3.55;;
7211;SDS011;3647;48.792;9.802;2023-09-30T14:43:13;7.75;;;3.45;;
7211;SDS011;3647;48.792;9.802;2023-09-30T14:45:39;7.28;;;4.20;;
7211;SDS011;3647;48.792;9.802;2023-09-30T14:48:06;9.73;;;4.00;;
7211;SDS011;3647;48.792;9.802;2023-09-30T14:50:35;8.75;;;4.43;;
7211;SDS011;3647;48.792;9.802;2023-09-30T14:53:03;6.50;;;3.63;;
7211;SDS011;3647;48.792;9.802;2023-09-30T14:55:31;7.10;;;3.97;;
7211;SDS011;3647;48.792;9.802;2023-09-30T14:57:57;8.18;;;4.00;;
7211;SDS011;3647;48.792;9.802;2023-09-30T15:00:24;7.80;;;4.78;;
7211;SDS011;3647;48.792;9.802;2023-09-30T15:02:51;9.23;;;3.90;;
7211;SDS011;3647;48.792;9.802;2023-09-30T15:05:19;7.28;;;3.97;;
7211;SDS011;3647;48.792;9.802;2023-09-30T15:07:47;9.18;;;4.65;;
7211;SDS011;3647;48.792;9.802;2023-09-30T15:10:14;6.72;;;3.95;;
7211;SDS011;3647;48.792;9.802;2023-09-30T15:12:41;7.60;;;4.22;;
7211;SDS011;3647;48.792;9.802;2023-09-30T15:15:08;7.50;;;4.57;;
7211;SDS011;3647;48.792;9.802;2023-09-30T15:17:35;7.88;;;4.18;;
7211;SDS011;3647;48.792;9.802;2023-09-30T15:20:02;6.35;;;3.53;;
7211;SDS011;3647;48.792;9.802;2023-09-30T15:22:31;7.35;;;3.95;;
7211;SDS011;3647;48.792;9.802;2023-09-30T15:24:59;7.95;;;4.40;;
7211;SDS011;3647;48.792;9.802;2023-09-30T15:27:26;8.77;;;4.25;;
7211;SDS011;3647;48.792;9.802;2023-09-30T15:29:53;9.93;;;4.07;;
7211;SDS011;3647;48.792;9.802;2023-09-30T15:32:20;7.45;;;4.18;;
7211;SDS011;3647;48.792;9.802;2023-09-30T15:34:47;7.50;;;4.28;;
7211;SDS011;3647;48.792;9.802;2023-09-30T15:37:14;7.97;;;4.20;;
7211;SDS011;3647;48.792;9.802;2023-09-30T15:39:42;8.77;;;4.75;;
7211;SDS011;3647;48.792;9.802;2023-09-30T15:42:13;9.18;;;4.32;;
7211;SDS011;3647;48.792;9.802;2023-09-30T15:44:40;7.85;;;3.92;;
7211;SDS011;3647;48.792;9.802;2023-09-30T15:47:07;7.95;;;3.92;;
7211;SDS011;3647;48.792;9.802;2023-09-30T15:49:35;8.93;;;4.18;;
7211;SDS011;3647;48.792;9.802;2023-09-30T15:52:02;8.07;;;3.75;;
7211;SDS011;3647;48.792;9.802;2023-09-30T15:54:30;9.93;;;4.53;;
7211;SDS011;3647;48.792;9.802;2023-09-30T15:56:57;7.90;;;4.57;;
7211;SDS011;3647;48.792;9.802;2023-09-30T15:59:26;8.63;;;4.40;;
7211;SDS011;3647;48.792;9.802;2023-09-30T16:01:53;7.53;;;4.05;;
7211;SDS011;3647;48.792;9.802;2023-09-30T16:04:20;9.35;;;4.70;;
7211;SDS011;3647;48.792;9.802;2023-09-30T16:06:47;7.43;;;4.57;;
7211;SDS011;3647;48.792;9.802;2023-09-30T16:09:14;7.60;;;4.13;;
7211;SDS011;3647;48.792;9.802;2023-09-30T16:11:41;10.75;;;4.88;;
7211;SDS011;3647;48.792;9.802;2023-09-30T16:14:08;7.18;;;3.75;;
7211;SDS011;3647;48.792;9.802;2023-09-30T16:16:37;8.23;;;4.13;;
7211;SDS011;3647;48.792;9.802;2023-09-30T16:19:04;16.02;;;9.02;;
7211;SDS011;3647;48.792;9.802;2023-09-30T16:21:31;8.43;;;4.85;;
7211;SDS011;3647;48.792;9.802;2023-09-30T16:23:58;10.35;;;5.72;;
7211;SDS011;3647;48.792;9.802;2023-09-30T16:26:25;5.85;;;3.55;;
7211;SDS011;3647;48.792;9.802;2023-09-30T16:28:52;9.45;;;4.72;;
7211;SDS011;3647;48.792;9.802;2023-09-30T16:31:19;9.95;;;4.50;;
7211;SDS011;3647;48.792;9.802;2023-09-30T16:33:47;8.55;;;4.72;;
7211;SDS011;3647;48.792;9.802;2023-09-30T16:36:14;9.55;;;5.25;;
7211;SDS011;3647;48.792;9.802;2023-09-30T16:38:41;9.18;;;4.90;;
7211;SDS011;3647;48.792;9.802;2023-09-30T16:41:08;9.55;;;4.43;;
7211;SDS011;3647;48.792;9.802;2023-09-30T16:43:35;11.52;;;5.40;;
7211;SDS011;3647;48.792;9.802;2023-09-30T16:46:04;9.13;;;4.88;;
7211;SDS011;3647;48.792;9.802;2023-09-30T16:48:31;9.30;;;5.10;;
7211;SDS011;3647;48.792;9.802;2023-09-30T16:51:00;10.43;;;5.13;;
7211;SDS011;3647;48.792;9.802;2023-09-30T16:53:28;8.55;;;4.40;;
7211;SDS011;3647;48.792;9.802;2023-09-30T16:55:55;9.00;;;4.88;;
7211;SDS011;3647;48.792;9.802;2023-09-30T16:58:23;11.48;;;5.13;;
7211;SDS011;3647;48.792;9.802;2023-09-30T17:00:50;10.18;;;4.75;;
7211;SDS011;3647;48.792;9.802;2023-09-30T17:03:17;6.68;;;4.13;;
7211;SDS011;3647;48.792;9.802;2023-09-30T17:05:44;10.85;;;4.82;;
7211;SDS011;3647;48.792;9.802;2023-09-30T17:08:13;12.10;;;6.00;;
7211;SDS011;3647;48.792;9.802;2023-09-30T17:10:40;13.52;;;6.72;;
7211;SDS011;3647;48.792;9.802;2023-09-30T17:13:08;11.02;;;6.65;;
7211;SDS011;3647;48.792;9.802;2023-09-30T17:15:34;9.63;;;6.85;;
7211;SDS011;3647;48.792;9.802;2023-09-30T17:18:06;12.95;;;6.72;;
7211;SDS011;3647;48.792;9.802;2023-09-30T17:20:33;13.15;;;7.10;;
7211;SDS011;3647;48.792;9.802;2023-09-30T17:23:01;12.48;;;6.90;;
7211;SDS011;3647;48.792;9.802;2023-09-30T17:25:31;14.75;;;7.05;;
7211;SDS011;3647;48.792;9.802;2023-09-30T17:27:58;11.95;;;6.85;;
7211;SDS011;3647;48.792;9.802;2023-09-30T17:30:25;10.55;;;6.68;;
7211;SDS011;3647;48.792;9.802;2023-09-30T17:32:52;12.43;;;6.47;;
7211;SDS011;3647;48.792;9.802;2023-09-30T17:35:19;10.48;;;5.78;;
7211;SDS011;3647;48.792;9.802;2023-09-30T17:37:46;16.70;;;7.72;;
7211;SDS011;3647;48.792;9.802;2023-09-30T17:40:13;12.82;;;7.53;;
7211;SDS011;3647;48.792;9.802;2023-09-30T17:42:42;11.68;;;6.10;;
7211;SDS011;3647;48.792;9.802;2023-09-30T17:45:09;11.48;;;6.70;;
7211;SDS011;3647;48.792;9.802;2023-09-30T17:47:37;9.95;;;5.88;;
7211;SDS011;3647;48.792;9.802;2023-09-30T17:50:05;14.82;;;6.57;;
7211;SDS011;3647;48.792;9.802;2023-09-30T17:52:33;11.02;;;7.05;;
7211;SDS011;3647;48.792;9.802;2023-09-30T17:55:00;12.40;;;6.68;;
7211;SDS011;3647;48.792;9.802;2023-09-30T17:57:27;13.38;;;7.03;;
7211;SDS011;3647;48.792;9.802;2023-09-30T17:59:55;14.48;;;7.78;;
7211;SDS011;3647;48.792;9.802;2023-09-30T18:02:22;12.20;;;6.85;;
7211;SDS011;3647;48.792;9.802;2023-09-30T18:04:49;10.88;;;7.10;;
7211;SDS011;3647;48.792;9.802;2023-09-30T18:07:16;10.05;;;6.65;;
7211;SDS011;3647;48.792;9.802;2023-09-30T18:09:43;10.32;;;5.60;;
7211;SDS011;3647;48.792;9.802;2023-09-30T18:12:09;11.27;;;6.15;;
7211;SDS011;3647;48.792;9.802;2023-09-30T18:14:36;10.98;;;6.53;;
7211;SDS011;3647;48.792;9.802;2023-09-30T18:17:05;7.90;;;5.53;;
7211;SDS011;3647;48.792;9.802;2023-09-30T18:19:32;12.30;;;6.10;;
7211;SDS011;3647;48.792;9.802;2023-09-30T18:21:58;11.27;;;5.95;;
7211;SDS011;3647;48.792;9.802;2023-09-30T18:24:25;8.23;;;5.82;;
7211;SDS011;3647;48.792;9.802;2023-09-30T18:26:52;10.00;;;5.80;;
7211;SDS011;3647;48.792;9.802;2023-09-30T18:29:19;8.05;;;5.75;;
7211;SDS011;3647;48.792;9.802;2023-09-30T18:31:47;9.50;;;5.68;;
7211;SDS011;3647;48.792;9.802;2023-09-30T18:34:16;10.55;;;5.78;;
7211;SDS011;3647;48.792;9.802;2023-09-30T18:36:43;7.50;;;5.10;;
7211;SDS011;3647;48.792;9.802;2023-09-30T18:39:10;8.98;;;5.43;;
7211;SDS011;3647;48.792;9.802;2023-09-30T18:41:37;10.27;;;6.13;;
7211;SDS011;3647;48.792;9.802;2023-09-30T18:44:04;11.77;;;7.03;;
7211;SDS011;3647;48.792;9.802;2023-09-30T18:46:31;10.75;;;6.47;;
7211;SDS011;3647;48.792;9.802;2023-09-30T18:48:58;10.43;;;6.03;;
7211;SDS011;3647;48.792;9.802;2023-09-30T18:51:28;10.98;;;5.85;;
7211;SDS011;3647;48.792;9.802;2023-09-30T18:53:57;10.33;;;6.37;;
7211;SDS011;3647;48.792;9.802;2023-09-30T18:56:24;11.73;;;5.93;;
7211;SDS011;3647;48.792;9.802;2023-09-30T18:58:51;9.20;;;5.47;;
7211;SDS011;3647;48.792;9.802;2023-09-30T19:01:18;6.93;;;4.60;;
7211;SDS011;3647;48.792;9.802;2023-09-30T19:03:45;9.75;;;5.57;;
7211;SDS011;3647;48.792;9.802;2023-09-30T19:06:12;8.43;;;5.10;;
7211;SDS011;3647;48.792;9.802;2023-09-30T19:08:41;9.03;;;4.93;;
7211;SDS011;3647;48.792;9.802;2023-09-30T19:11:08;7.67;;;4.93;;
7211;SDS011;3647;48.792;9.802;2023-09-30T19:13:35;10.13;;;5.77;;
7211;SDS011;3647;48.792;9.802;2023-09-30T19:16:04;14.83;;;5.00;;
7211;SDS011;3647;48.792;9.802;2023-09-30T19:18:31;12.03;;;6.13;;
7211;SDS011;3647;48.792;9.802;2023-09-30T19:20:58;10.23;;;4.93;;
7211;SDS011;3647;48.792;9.802;2023-09-30T19:23:25;11.70;;;5.10;;
7211;SDS011;3647;48.792;9.802;2023-09-30T19:25:53;9.70;;;5.73;;
7211;SDS011;3647;48.792;9.802;2023-09-30T19:28:20;11.27;;;6.30;;
7211;SDS011;3647;48.792;9.802;2023-09-30T19:30:47;11.05;;;6.13;;
7211;SDS011;3647;48.792;9.802;2023-09-30T19:33:14;8.17;;;4.93;;
7211;SDS011;3647;48.792;9.802;2023-09-30T19:35:41;9.77;;;5.47;;
7211;SDS011;3647;48.792;9.802;2023-09-30T19:38:08;7.43;;;5.00;;
7211;SDS011;3647;48.792;9.802;2023-09-30T19:40:35;10.60;;;5.30;;
7211;SDS011;3647;48.792;9.802;2023-09-30T19:43:03;9.00;;;5.47;;
7211;SDS011;3647;48.792;9.802;2023-09-30T19:45:30;9.43;;;5.37;;
7211;SDS011;3647;48.792;9.802;2023-09-30T19:47:57;10.03;;;5.70;;
7211;SDS011;3647;48.792;9.802;2023-09-30T19:50:24;15.47;;;6.43;;
7211;SDS011;3647;48.792;9.802;2023-09-30T19:52:51;12.57;;;6.10;;
7211;SDS011;3647;48.792;9.802;2023-09-30T19:55:18;9.13;;;5.00;;
7211;SDS011;3647;48.792;9.802;2023-09-30T19:57:45;10.87;;;5.63;;
7211;SDS011;3647;48.792;9.802;2023-09-30T20:00:14;10.17;;;6.00;;
7211;SDS011;3647;48.792;9.802;2023-09-30T20:02:41;11.63;;;5.60;;
7211;SDS011;3647;48.792;9.802;2023-09-30T20:05:08;12.47;;;5.73;;
7211;SDS011;3647;48.792;9.802;2023-09-30T20:07:36;11.00;;;5.63;;
7211;SDS011;3647;48.792;9.802;2023-09-30T20:10:04;8.10;;;5.40;;
7211;SDS011;3647;48.792;9.802;2023-09-30T20:12:33;9.70;;;6.23;;
7211;SDS011;3647;48.792;9.802;2023-09-30T20:15:01;11.20;;;5.40;;
7211;SDS011;3647;48.792;9.802;2023-09-30T20:17:30;10.37;;;5.73;;
7211;SDS011;3647;48.792;9.802;2023-09-30T20:19:57;13.53;;;6.00;;
7211;SDS011;3647;48.792;9.802;2023-09-30T20:22:24;7.87;;;4.93;;
7211;SDS011;3647;48.792;9.802;2023-09-30T20:24:51;10.57;;;5.70;;
7211;SDS011;3647;48.792;9.802;2023-09-30T20:27:20;9.63;;;5.87;;
7211;SDS011;3647;48.792;9.802;2023-09-30T20:29:47;10.13;;;6.53;;
7211;SDS011;3647;48.792;9.802;2023-09-30T20:32:14;14.33;;;6.30;;
7211;SDS011;3647;48.792;9.802;2023-09-30T20:34:42;9.73;;;5.80;;
7211;SDS011;3647;48.792;9.802;2023-09-30T20:37:10;10.10;;;6.47;;
7211;SDS011;3647;48.792;9.802;2023-09-30T20:39:37;9.50;;;5.67;;
7211;SDS011;3647;48.792;9.802;2023-09-30T20:42:05;10.03;;;6.37;;
7211;SDS011;3647;48.792;9.802;2023-09-30T20:44:32;9.10;;;5.67;;
7211;SDS011;3647;48.792;9.802;2023-09-30T20:46:59;9.93;;;5.83;;
7211;SDS011;3647;48.792;9.802;2023-09-30T20:49:26;10.97;;;5.67;;
7211;SDS011;3647;48.792;9.802;2023-09-30T20:51:54;10.47;;;6.17;;
7211;SDS011;3647;48.792;9.802;2023-09-30T20:54:21;8.50;;;5.17;;
7211;SDS011;3647;48.792;9.802;2023-09-30T20:56:48;8.47;;;4.83;;
7211;SDS011;3647;48.792;9.802;2023-09-30T20:59:17;10.33;;;6.63;;
7211;SDS011;3647;48.792;9.802;2023-09-30T21:01:44;9.67;;;5.00;;
7211;SDS011;3647;48.792;9.802;2023-09-30T21:04:13;10.40;;;6.27;;
7211;SDS011;3647;48.792;9.802;2023-09-30T21:06:41;10.50;;;5.87;;
7211;SDS011;3647;48.792;9.802;2023-09-30T21:09:10;19.33;;;5.70;;
7211;SDS011;3647;48.792;9.802;2023-09-30T21:11:39;9.50;;;5.53;;
7211;SDS011;3647;48.792;9.802;2023-09-30T21:14:06;8.40;;;5.50;;
7211;SDS011;3647;48.792;9.802;2023-09-30T21:16:33;10.80;;;5.53;;
7211;SDS011;3647;48.792;9.802;2023-09-30T21:19:02;11.97;;;6.80;;
7211;SDS011;3647;48.792;9.802;2023-09-30T21:21:29;9.93;;;5.70;;
